createdAt,value
2023-04-21T00:01:15.867Z,89.36
2023-04-21T00:03:43.724Z,89.76
2023-04-21T00:06:10.606Z,89.70
2023-04-21T00:08:40.039Z,89.69
2023-04-21T00:11:07.451Z,89.53
2023-04-21T00:13:35.576Z,89.49
2023-04-21T00:16:02.823Z,89.39
2023-04-21T00:18:29.810Z,89.40
2023-04-21T00:20:56.489Z,89.33
2023-04-21T00:23:23.389Z,89.27
2023-04-21T00:25:50.334Z,89.41
2023-04-21T00:28:17.463Z,89.69
2023-04-21T00:30:44.156Z,90.02
2023-04-21T00:33:10.786Z,90.16
2023-04-21T00:35:37.456Z,90.25
2023-04-21T00:38:04.294Z,90.25
2023-04-21T00:40:31.391Z,90.31
2023-04-21T00:42:58.392Z,90.09
2023-04-21T00:45:25.080Z,89.90
2023-04-21T00:47:52.311Z,89.79
2023-04-21T00:50:19.174Z,89.43
2023-04-21T00:52:46.517Z,89.57
2023-04-21T00:55:13.584Z,89.76
2023-04-21T00:57:42.091Z,89.74
2023-04-21T01:00:10.027Z,89.75
2023-04-21T01:02:38.369Z,89.60
2023-04-21T01:05:09.423Z,89.73
2023-04-21T01:07:38.325Z,89.79
2023-04-21T01:10:06.123Z,89.78
2023-04-21T01:12:32.962Z,89.81
2023-04-21T01:15:00.275Z,89.65
2023-04-21T01:17:27.091Z,89.88
2023-04-21T01:19:53.846Z,89.81
2023-04-21T01:22:20.451Z,89.88
2023-04-21T01:24:47.740Z,89.94
2023-04-21T01:27:19.356Z,90.23
2023-04-21T01:29:47.805Z,90.86
2023-04-21T01:32:16.726Z,90.97
2023-04-21T01:34:43.915Z,91.04
2023-04-21T01:37:15.802Z,90.88
2023-04-21T01:39:44.245Z,90.84
2023-04-21T01:42:11.774Z,90.67
2023-04-21T01:44:38.541Z,90.64
2023-04-21T01:47:06.026Z,90.81
2023-04-21T01:49:32.736Z,91.02
2023-04-21T01:51:59.372Z,90.93
2023-04-21T01:54:26.073Z,90.78
2023-04-21T01:56:53.111Z,90.96
2023-04-21T01:59:21.493Z,91.34
2023-04-21T02:01:48.496Z,91.23
2023-04-21T02:04:15.357Z,91.32
2023-04-21T02:06:43.466Z,91.21
2023-04-21T02:09:10.263Z,90.92
2023-04-21T02:11:37.713Z,90.99
2023-04-21T02:14:04.340Z,90.88
2023-04-21T02:16:31.064Z,90.69
2023-04-21T02:18:59.185Z,90.72
2023-04-21T02:21:27.115Z,90.85
2023-04-21T02:23:53.833Z,91.04
2023-04-21T02:26:20.736Z,91.22
2023-04-21T02:28:47.585Z,91.08
2023-04-21T02:31:16.612Z,90.82
2023-04-21T02:33:43.268Z,90.47
2023-04-21T02:36:11.514Z,90.30
2023-04-21T02:38:38.359Z,90.35
2023-04-21T02:41:05.061Z,90.39
2023-04-21T02:43:33.651Z,90.34
2023-04-21T02:46:05.643Z,90.41
2023-04-21T02:48:35.411Z,90.45
2023-04-21T02:51:02.155Z,90.53
2023-04-21T02:53:29.278Z,90.60
2023-04-21T02:55:55.976Z,90.88
2023-04-21T02:58:23.649Z,91.07
2023-04-21T03:00:50.937Z,91.40
2023-04-21T03:03:17.723Z,91.42
2023-04-21T03:05:44.584Z,91.37
2023-04-21T03:08:11.306Z,91.43
2023-04-21T03:10:39.389Z,91.62
2023-04-21T03:13:06.066Z,91.93
2023-04-21T03:15:32.756Z,91.91
2023-04-21T03:18:01.591Z,91.99
2023-04-21T03:20:28.786Z,92.01
2023-04-21T03:22:55.561Z,91.96
2023-04-21T03:25:22.725Z,91.75
2023-04-21T03:27:49.374Z,91.66
2023-04-21T03:30:16.104Z,91.45
2023-04-21T03:32:43.012Z,91.11
2023-04-21T03:35:09.893Z,90.87
2023-04-21T03:37:36.749Z,90.35
2023-04-21T03:40:08.154Z,89.71
2023-04-21T03:42:35.448Z,89.24
2023-04-21T03:45:06.611Z,88.96
2023-04-21T03:47:35.054Z,88.68
2023-04-21T03:50:05.275Z,88.39
2023-04-21T03:52:32.439Z,88.30
2023-04-21T03:54:59.193Z,88.13
2023-04-21T03:57:26.265Z,88.06
2023-04-21T03:59:52.952Z,88.14
2023-04-21T04:02:19.646Z,88.04
2023-04-21T04:04:46.887Z,88.07
2023-04-21T04:07:13.801Z,87.95
2023-04-21T04:09:41.572Z,87.69
2023-04-21T04:12:11.174Z,87.57
2023-04-21T04:14:39.086Z,87.48
2023-04-21T04:17:05.827Z,87.52
2023-04-21T04:19:33.149Z,87.41
2023-04-21T04:22:00.599Z,87.21
2023-04-21T04:24:27.836Z,87.11
2023-04-21T04:26:54.667Z,86.68
2023-04-21T04:29:22.070Z,86.63
2023-04-21T04:31:51.591Z,86.08
2023-04-21T04:34:18.572Z,85.41
2023-04-21T04:36:45.808Z,84.93
2023-04-21T04:39:12.468Z,84.43
2023-04-21T04:41:40.858Z,83.88
2023-04-21T04:44:08.555Z,83.67
2023-04-21T04:46:35.643Z,82.53
2023-04-21T04:49:02.553Z,81.62
2023-04-21T04:51:29.780Z,80.38
2023-04-21T04:53:56.529Z,79.20
2023-04-21T04:56:23.238Z,78.03
2023-04-21T04:58:49.915Z,76.12
2023-04-21T05:01:16.771Z,74.06
2023-04-21T05:03:44.088Z,72.83
2023-04-21T05:06:11.559Z,71.74
2023-04-21T05:08:40.526Z,70.63
2023-04-21T05:11:07.564Z,69.76
2023-04-21T05:13:35.422Z,68.79
2023-04-21T05:16:02.848Z,68.73
2023-04-21T05:18:30.180Z,68.38
2023-04-21T05:20:56.854Z,68.30
2023-04-21T05:23:23.808Z,67.94
2023-04-21T05:25:50.590Z,67.10
2023-04-21T05:28:17.373Z,66.35
2023-04-21T05:30:43.991Z,65.73
2023-04-21T05:33:10.805Z,65.88
2023-04-21T05:35:38.182Z,65.61
2023-04-21T05:38:05.618Z,65.33
2023-04-21T05:40:32.534Z,65.66
2023-04-21T05:42:59.417Z,65.95
2023-04-21T05:45:26.076Z,65.54
2023-04-21T05:47:52.794Z,65.43
2023-04-21T05:50:19.840Z,64.99
2023-04-21T05:52:46.485Z,64.84
2023-04-21T05:55:13.118Z,64.19
2023-04-21T05:57:39.861Z,63.47
2023-04-21T06:00:08.097Z,61.46
2023-04-21T06:02:35.064Z,58.80
2023-04-21T06:05:02.153Z,55.56
2023-04-21T06:07:30.082Z,51.85
2023-04-21T06:09:57.393Z,48.99
2023-04-21T06:12:24.278Z,46.23
2023-04-21T06:14:51.057Z,44.23
2023-04-21T06:17:18.333Z,42.42
2023-04-21T06:19:45.110Z,39.73
2023-04-21T06:22:11.803Z,38.06
2023-04-21T06:24:39.004Z,37.00
2023-04-21T06:27:10.838Z,35.20
2023-04-21T06:29:37.611Z,33.95
2023-04-21T06:32:07.180Z,33.14
2023-04-21T06:34:34.120Z,32.27
2023-04-21T06:37:01.107Z,31.59
2023-04-21T06:39:29.100Z,30.75
2023-04-21T06:41:57.953Z,30.47
2023-04-21T06:44:26.735Z,30.45
2023-04-21T06:46:57.119Z,30.77
2023-04-21T06:50:00.315Z,31.40
2023-04-21T06:52:27.133Z,32.69
2023-04-21T06:54:53.832Z,33.41
2023-04-21T06:57:20.510Z,34.33
2023-04-21T06:59:49.892Z,35.56
2023-04-21T07:02:16.519Z,36.29
2023-04-21T07:04:43.418Z,36.96
2023-04-21T07:07:10.274Z,37.40
2023-04-21T07:09:37.382Z,37.68
2023-04-21T07:12:04.226Z,38.25
2023-04-21T07:14:31.324Z,37.64
2023-04-21T07:16:58.048Z,36.51
2023-04-21T07:19:24.859Z,35.17
2023-04-21T07:21:51.532Z,33.39
2023-04-21T07:24:18.376Z,32.63
2023-04-21T07:26:45.629Z,32.20
2023-04-21T07:29:12.461Z,32.31
2023-04-21T07:31:39.392Z,32.65
2023-04-21T07:34:06.250Z,32.94
2023-04-21T07:36:33.235Z,33.42
2023-04-21T07:39:00.624Z,34.32
2023-04-21T07:41:28.886Z,35.45
2023-04-21T07:43:55.579Z,36.20
2023-04-21T07:46:25.373Z,36.86
2023-04-21T07:48:52.472Z,37.56
2023-04-21T07:51:19.512Z,38.30
2023-04-21T07:53:46.398Z,39.04
2023-04-21T07:56:13.214Z,39.83
2023-04-21T07:58:40.117Z,40.69
2023-04-21T08:01:06.908Z,41.35
2023-04-21T08:03:34.776Z,40.77
2023-04-21T08:06:02.044Z,39.30
2023-04-21T08:08:31.429Z,39.20
2023-04-21T08:10:58.933Z,38.64
2023-04-21T08:13:25.861Z,37.52
2023-04-21T08:15:56.193Z,37.26
2023-04-21T08:18:59.276Z,35.29
2023-04-21T08:21:26.335Z,34.46
2023-04-21T08:23:54.894Z,34.17
2023-04-21T08:26:23.257Z,33.80
2023-04-21T08:28:50.501Z,33.32
2023-04-21T08:31:17.897Z,32.71
2023-04-21T08:33:54.222Z,32.59
2023-04-21T08:36:29.845Z,32.28
2023-04-21T08:38:57.641Z,30.49
2023-04-21T08:41:24.912Z,30.29
2023-04-21T08:43:51.787Z,30.45
2023-04-21T08:46:18.819Z,30.03
2023-04-21T08:48:45.830Z,30.98
2023-04-21T08:51:14.376Z,31.26
2023-04-21T08:53:42.791Z,31.06
2023-04-21T08:56:11.869Z,31.65
2023-04-21T08:58:38.888Z,32.30
2023-04-21T09:01:06.037Z,32.26
2023-04-21T09:03:35.222Z,32.98
2023-04-21T09:06:05.506Z,32.88
2023-04-21T09:08:34.255Z,33.39
2023-04-21T09:11:01.031Z,34.31
2023-04-21T09:13:36.184Z,34.78
2023-04-21T09:16:07.931Z,35.71
2023-04-21T09:18:36.904Z,35.02
2023-04-21T09:21:08.645Z,35.19
2023-04-21T09:23:50.162Z,35.98
2023-04-21T09:26:18.079Z,35.71
2023-04-21T09:28:46.284Z,36.68
2023-04-21T09:31:15.404Z,37.19
2023-04-21T09:36:25.707Z,38.26
2023-04-21T09:39:20.668Z,39.10
2023-04-21T09:41:47.903Z,39.95
2023-04-21T09:44:16.970Z,40.56
2023-04-21T09:46:44.327Z,40.64
2023-04-21T09:49:11.886Z,40.94
2023-04-21T09:52:05.926Z,41.71
2023-04-21T09:54:30.555Z,42.15
2023-04-21T09:57:02.084Z,42.41
2023-04-21T09:59:36.129Z,42.51
2023-04-21T10:02:07.018Z,41.55
2023-04-21T10:04:35.727Z,41.45
2023-04-21T10:07:03.248Z,42.05
2023-04-21T10:09:36.616Z,42.06
2023-04-21T10:12:03.493Z,42.03
2023-04-21T10:14:30.752Z,42.42
2023-04-21T10:17:21.225Z,43.19
2023-04-21T10:19:50.219Z,44.40
2023-04-21T10:22:29.943Z,45.30
2023-04-21T10:25:00.147Z,46.40
2023-04-21T10:27:34.757Z,47.42
2023-04-21T10:30:17.285Z,47.41
2023-04-21T10:32:46.139Z,48.04
2023-04-21T10:35:14.580Z,48.43
2023-04-21T10:37:42.005Z,48.62
2023-04-21T10:40:44.361Z,48.67
2023-04-21T10:43:49.594Z,49.06
2023-04-21T10:46:37.672Z,49.02
2023-04-21T10:49:30.921Z,47.73
2023-04-21T10:52:01.873Z,47.33
2023-04-21T10:54:30.902Z,46.39
2023-04-21T10:56:58.432Z,46.00
2023-04-21T10:59:26.094Z,45.04
2023-04-21T11:01:53.105Z,45.84
2023-04-21T11:04:23.604Z,45.74
2023-04-21T11:07:11.298Z,45.07
2023-04-21T11:09:39.024Z,45.16
2023-04-21T11:12:09.832Z,45.01
2023-04-21T11:14:38.350Z,45.54
2023-04-21T11:17:08.196Z,46.17
2023-04-21T11:19:35.111Z,46.09
2023-04-21T11:22:03.267Z,46.99
2023-04-21T11:24:33.580Z,46.92
2023-04-21T11:27:01.613Z,45.85
2023-04-21T11:29:31.482Z,44.17
2023-04-21T11:31:58.692Z,42.90
2023-04-21T11:34:25.699Z,43.09
2023-04-21T11:36:56.181Z,43.37
2023-04-21T11:39:23.097Z,43.56
2023-04-21T11:41:50.480Z,44.09
2023-04-21T11:44:49.612Z,43.77
2023-04-21T11:47:20.659Z,42.79
2023-04-21T11:49:49.424Z,42.58
2023-04-21T11:52:21.059Z,42.58
2023-04-21T11:54:47.778Z,42.88
2023-04-21T11:57:18.234Z,42.45
2023-04-21T11:59:46.627Z,41.75
2023-04-21T12:02:22.236Z,42.11
2023-04-21T12:05:05.892Z,42.44
2023-04-21T12:07:34.382Z,43.34
2023-04-21T12:10:02.314Z,43.38
2023-04-21T12:12:29.672Z,42.78
2023-04-21T12:14:56.408Z,41.94
2023-04-21T12:17:23.258Z,42.16
2023-04-21T12:19:50.091Z,42.36
2023-04-21T12:22:22.456Z,43.05
2023-04-21T12:24:49.118Z,43.31
2023-04-21T12:27:16.270Z,43.63
2023-04-21T12:29:42.919Z,43.65
2023-04-21T12:32:09.821Z,43.49
2023-04-21T12:34:37.099Z,43.07
2023-04-21T12:37:04.288Z,43.30
2023-04-21T12:39:32.044Z,43.13
2023-04-21T12:41:59.180Z,42.72
2023-04-21T12:44:27.369Z,42.64
2023-04-21T12:46:54.124Z,42.85
2023-04-21T12:49:20.895Z,42.37
2023-04-21T12:51:48.474Z,42.10
2023-04-21T12:54:15.481Z,42.33
2023-04-21T12:56:42.557Z,42.96
2023-04-21T12:59:09.856Z,42.35
2023-04-21T13:01:38.302Z,42.71
2023-04-21T13:04:05.370Z,42.77
2023-04-21T13:06:33.206Z,42.61
2023-04-21T13:09:01.150Z,42.67
2023-04-21T13:11:27.899Z,42.65
2023-04-21T13:13:54.508Z,43.00
2023-04-21T13:16:21.214Z,42.81
2023-04-21T13:18:47.924Z,42.67
2023-04-21T13:21:14.873Z,42.75
2023-04-21T13:23:41.524Z,42.89
2023-04-21T13:26:08.223Z,42.59
2023-04-21T13:28:34.918Z,42.93
2023-04-21T13:31:01.657Z,43.20
2023-04-21T13:33:28.682Z,43.27
2023-04-21T13:35:55.289Z,42.88
2023-04-21T13:38:22.038Z,42.71
2023-04-21T13:40:49.012Z,43.36
2023-04-21T13:43:15.881Z,42.85
2023-04-21T13:45:42.463Z,42.83
2023-04-21T13:48:09.124Z,43.06
2023-04-21T13:50:36.171Z,43.45
2023-04-21T13:53:02.801Z,43.15
2023-04-21T13:55:29.851Z,42.66
2023-04-21T13:57:59.253Z,42.92
2023-04-21T14:00:25.855Z,42.95
2023-04-21T14:02:53.091Z,43.08
2023-04-21T14:05:20.359Z,43.52
2023-04-21T14:07:47.268Z,43.79
2023-04-21T14:10:13.968Z,43.19
2023-04-21T14:12:40.753Z,42.88
2023-04-21T14:15:07.840Z,42.96
2023-04-21T14:17:35.225Z,43.03
2023-04-21T14:20:02.133Z,43.42
2023-04-21T14:22:29.396Z,43.61
2023-04-21T14:24:56.104Z,43.41
2023-04-21T14:27:22.698Z,43.54
2023-04-21T14:29:49.302Z,43.84
2023-04-21T14:32:16.361Z,43.24
2023-04-21T14:34:43.132Z,43.13
2023-04-21T14:37:09.808Z,43.34
2023-04-21T14:39:36.726Z,43.92
2023-04-21T14:42:03.403Z,44.36
2023-04-21T14:44:31.830Z,44.81
2023-04-21T14:47:09.115Z,45.14
2023-04-21T14:49:37.902Z,45.58
2023-04-21T14:52:04.913Z,45.89
2023-04-21T14:54:32.416Z,46.03
2023-04-21T14:57:14.656Z,46.29
2023-04-21T14:59:46.100Z,46.50
2023-04-21T15:02:12.973Z,46.80
2023-04-21T15:04:39.798Z,46.98
2023-04-21T15:07:06.444Z,47.23
2023-04-21T15:09:35.098Z,47.51
2023-04-21T15:12:01.936Z,47.88
2023-04-21T15:14:28.857Z,47.93
2023-04-21T15:16:55.538Z,48.17
2023-04-21T15:19:24.808Z,48.68
2023-04-21T15:21:52.563Z,48.55
2023-04-21T15:24:19.263Z,48.60
2023-04-21T15:26:46.051Z,48.84
2023-04-21T15:29:12.787Z,48.94
2023-04-21T15:31:39.612Z,49.05
2023-04-21T15:34:06.468Z,49.23
2023-04-21T15:36:33.927Z,49.96
2023-04-21T15:39:00.524Z,50.94
2023-04-21T15:41:28.812Z,51.81
2023-04-21T15:43:55.582Z,52.62
2023-04-21T15:46:22.325Z,53.34
2023-04-21T15:48:49.047Z,54.07
2023-04-21T15:51:15.743Z,55.15
2023-04-21T15:53:46.899Z,56.26
2023-04-21T15:56:14.504Z,57.98
2023-04-21T15:58:41.588Z,59.88
2023-04-21T16:01:08.345Z,59.43
2023-04-21T16:03:35.379Z,55.14
2023-04-21T16:06:02.767Z,56.07
2023-04-21T16:08:31.033Z,58.03
2023-04-21T16:10:58.272Z,60.65
2023-04-21T16:13:25.110Z,61.81
2023-04-21T16:15:51.981Z,61.45
2023-04-21T16:18:18.742Z,62.22
2023-04-21T16:20:45.849Z,63.09
2023-04-21T16:23:12.728Z,64.16
2023-04-21T16:25:39.727Z,65.05
2023-04-21T16:28:06.843Z,65.51
2023-04-21T16:30:34.621Z,65.62
2023-04-21T16:33:02.302Z,64.97
2023-04-21T16:35:29.838Z,64.68
2023-04-21T16:37:56.838Z,64.75
2023-04-21T16:40:24.601Z,66.22
2023-04-21T16:42:52.054Z,67.13
2023-04-21T16:45:18.827Z,68.72
2023-04-21T16:47:45.583Z,69.87
2023-04-21T16:50:12.867Z,71.39
2023-04-21T16:52:39.878Z,72.66
2023-04-21T16:55:08.181Z,73.66
2023-04-21T16:57:35.872Z,74.08
2023-04-21T17:00:06.260Z,75.07
2023-04-21T17:02:33.642Z,76.46
2023-04-21T17:05:00.470Z,77.67
2023-04-21T17:07:27.190Z,78.99
2023-04-21T17:09:53.907Z,79.87
2023-04-21T17:12:21.042Z,81.09
2023-04-21T17:14:47.987Z,82.31
2023-04-21T17:17:14.601Z,82.11
2023-04-21T17:19:41.203Z,82.64
2023-04-21T17:22:08.216Z,83.25
2023-04-21T17:24:49.111Z,83.16
2023-04-21T17:27:20.337Z,83.53
2023-04-21T17:29:47.256Z,84.01
2023-04-21T17:32:14.282Z,84.55
2023-04-21T17:34:41.216Z,84.96
2023-04-21T17:37:08.429Z,85.29
2023-04-21T17:39:35.715Z,85.16
2023-04-21T17:42:02.613Z,85.19
2023-04-21T17:44:30.407Z,85.62
2023-04-21T17:46:57.570Z,85.68
2023-04-21T17:49:24.826Z,85.76
2023-04-21T17:51:51.576Z,85.79
2023-04-21T17:54:18.311Z,85.76
2023-04-21T17:56:45.637Z,85.68
2023-04-21T17:59:12.253Z,85.96
2023-04-21T18:01:38.900Z,86.03
2023-04-21T18:04:05.762Z,86.03
2023-04-21T18:06:32.670Z,85.86
2023-04-21T18:08:59.269Z,85.72
2023-04-21T18:11:25.965Z,85.31
2023-04-21T18:13:53.410Z,85.11
2023-04-21T18:16:20.198Z,85.03
2023-04-21T18:18:46.994Z,84.87
2023-04-21T18:21:14.232Z,84.56
2023-04-21T18:23:40.818Z,84.28
2023-04-21T18:26:07.890Z,84.16
2023-04-21T18:28:34.832Z,84.13
2023-04-21T18:31:01.479Z,83.88
2023-04-21T18:33:28.397Z,83.57
2023-04-21T18:35:55.017Z,83.21
2023-04-21T18:38:21.939Z,82.07
2023-04-21T18:40:48.580Z,80.98
2023-04-21T18:43:15.257Z,80.53
2023-04-21T18:45:41.897Z,80.17
2023-04-21T18:48:08.695Z,79.76
2023-04-21T18:50:40.343Z,79.69
2023-04-21T18:53:07.852Z,79.60
2023-04-21T18:55:35.651Z,79.43
2023-04-21T18:58:02.420Z,79.37
2023-04-21T19:00:31.097Z,79.18
2023-04-21T19:03:00.488Z,78.93
2023-04-21T19:05:29.662Z,78.55
2023-04-21T19:07:57.954Z,78.41
2023-04-21T19:10:25.268Z,78.32
2023-04-21T19:12:52.035Z,78.25
2023-04-21T19:15:19.858Z,78.07
2023-04-21T19:17:46.606Z,77.95
2023-04-21T19:20:13.375Z,77.82
2023-04-21T19:22:40.801Z,77.79
2023-04-21T19:25:08.079Z,77.88
2023-04-21T19:27:35.338Z,77.72
2023-04-21T19:30:02.017Z,77.46
2023-04-21T19:32:29.032Z,77.25
2023-04-21T19:34:56.000Z,77.24
2023-04-21T19:37:22.820Z,77.30
2023-04-21T19:39:49.689Z,77.25
2023-04-21T19:42:16.461Z,77.19
2023-04-21T19:44:43.189Z,77.14
2023-04-21T19:47:09.822Z,77.17
2023-04-21T19:49:36.443Z,77.28
2023-04-21T19:52:03.055Z,77.39
2023-04-21T19:54:30.620Z,77.49
2023-04-21T19:56:57.272Z,77.41
2023-04-21T19:59:23.904Z,77.61
2023-04-21T20:01:50.719Z,77.68
2023-04-21T20:04:17.539Z,77.72
2023-04-21T20:06:45.161Z,77.73
2023-04-21T20:09:11.866Z,77.89
2023-04-21T20:11:38.534Z,77.98
2023-04-21T20:14:05.136Z,78.43
2023-04-21T20:16:32.309Z,78.71
2023-04-21T20:18:59.005Z,78.84
2023-04-21T20:21:25.638Z,79.16
2023-04-21T20:23:52.296Z,79.52
2023-04-21T20:26:18.943Z,79.93
2023-04-21T20:28:45.541Z,80.24
2023-04-21T20:31:12.841Z,81.02
2023-04-21T20:33:39.822Z,81.83
2023-04-21T20:36:09.385Z,82.32
2023-04-21T20:38:37.825Z,83.05
2023-04-21T20:41:04.508Z,83.43
2023-04-21T20:43:32.491Z,83.76
2023-04-21T20:46:02.665Z,84.19
2023-04-21T20:48:29.943Z,84.50
2023-04-21T20:50:56.636Z,84.87
2023-04-21T20:53:23.390Z,85.08
2023-04-21T20:55:50.309Z,85.45
2023-04-21T20:58:17.975Z,85.63
2023-04-21T21:00:44.789Z,85.79
2023-04-21T21:03:13.115Z,86.13
2023-04-21T21:05:40.206Z,86.13
2023-04-21T21:08:07.305Z,86.42
2023-04-21T21:10:34.736Z,86.63
2023-04-21T21:13:01.760Z,86.89
2023-04-21T21:15:30.276Z,87.47
2023-04-21T21:17:57.008Z,87.55
2023-04-21T21:20:23.792Z,87.75
2023-04-21T21:22:50.792Z,87.98
2023-04-21T21:25:17.460Z,88.07
2023-04-21T21:27:44.380Z,88.32
2023-04-21T21:30:11.302Z,88.63
2023-04-21T21:32:38.208Z,88.64
2023-04-21T21:35:06.915Z,88.82
2023-04-21T21:37:33.843Z,89.12
2023-04-21T21:40:00.412Z,89.45
2023-04-21T21:42:27.049Z,89.57
2023-04-21T21:44:53.708Z,89.74
2023-04-21T21:47:20.285Z,89.98
2023-04-21T21:49:46.874Z,90.02
2023-04-21T21:52:14.435Z,89.98
2023-04-21T21:54:41.139Z,89.89
2023-04-21T21:57:07.741Z,90.04
2023-04-21T21:59:35.180Z,90.34
2023-04-21T22:02:02.042Z,90.43
2023-04-21T22:04:29.078Z,90.74
2023-04-21T22:06:55.954Z,90.89
2023-04-21T22:09:22.587Z,91.19
2023-04-21T22:11:49.198Z,91.69
2023-04-21T22:14:23.421Z,91.99
2023-04-21T22:16:52.149Z,92.84
2023-04-21T22:19:18.941Z,93.26
2023-04-21T22:21:45.738Z,93.82
2023-04-21T22:24:12.420Z,94.31
2023-04-21T22:26:39.147Z,94.79
2023-04-21T22:29:06.338Z,95.42
2023-04-21T22:31:33.229Z,95.92
2023-04-21T22:33:59.979Z,96.28
2023-04-21T22:36:26.609Z,96.51
2023-04-21T22:38:53.170Z,96.58
2023-04-21T22:41:20.500Z,97.13
2023-04-21T22:43:47.194Z,98.04
2023-04-21T22:46:13.965Z,98.77
2023-04-21T22:48:40.798Z,99.52
2023-04-21T22:51:07.380Z,99.85
2023-04-21T22:53:34.256Z,100.00
2023-04-21T22:56:01.179Z,100.00
2023-04-21T22:58:27.771Z,100.00
2023-04-21T23:00:54.413Z,100.00
2023-04-21T23:03:22.102Z,100.00
2023-04-21T23:05:48.921Z,100.00
2023-04-21T23:08:16.146Z,100.00
2023-04-21T23:10:43.248Z,100.00
2023-04-21T23:13:10.153Z,100.00
2023-04-21T23:15:36.756Z,100.00
2023-04-21T23:18:03.727Z,100.00
2023-04-21T23:20:31.001Z,100.00
2023-04-21T23:22:58.028Z,100.00
2023-04-21T23:25:24.992Z,100.00
2023-04-21T23:27:51.595Z,100.00
2023-04-21T23:30:18.594Z,100.00
2023-04-21T23:32:46.096Z,100.00
2023-04-21T23:35:12.741Z,100.00
2023-04-21T23:37:39.787Z,100.00
2023-04-21T23:40:10.492Z,100.00
2023-04-21T23:42:38.336Z,100.00
2023-04-21T23:45:05.929Z,100.00
2023-04-21T23:47:32.965Z,100.00
2023-04-21T23:49:59.780Z,100.00
2023-04-21T23:52:26.887Z,100.00
2023-04-21T23:54:53.646Z,100.00
2023-04-21T23:57:20.302Z,100.00
2023-04-21T23:59:47.187Z,100.00
